Time;durP1;ratioP1;P1;durP2;ratioP2;P2;SDS_P1;SDS_P2;PMS_P1;PMS_P2;Temp;Humidity;BMP_temperature;BMP_pressure;BME280_temperature;BME280_humidity;BME280_pressure;Samples;Min_cycle;Max_cycle;Signal;HPM_P1;HPM_P2
2021/08/02 00:00:05;;;;;;;3.88;1.80;;;;;;;17.16;68.66;99529.75;2192097;40;20039;-80
2021/08/02 00:01:45;;;;;;;4.90;1.80;;;;;;;17.16;68.48;99529.75;2192033;40;20032;-81
2021/08/02 00:03:25;;;;;;;4.55;2.10;;;;;;;17.14;68.60;99524.53;2192092;40;20059;-80
2021/08/02 00:05:01;;;;;;;5.07;2.08;;;;;;;17.16;68.42;99535.16;2191964;40;20408;-81
2021/08/02 00:06:43;;;;;;;3.40;1.60;;;;;;;17.14;68.35;99535.34;2191841;40;20043;-80
2021/08/02 00:08:21;;;;;;;4.45;1.65;;;;;;;17.15;68.86;99536.19;2191668;40;20335;-82
2021/08/02 00:09:57;;;;;;;3.53;1.73;;;;;;;17.12;68.56;99536.56;2190744;40;20036;-81
2021/08/02 00:11:33;;;;;;;3.30;1.50;;;;;;;17.17;68.55;99536.81;2192131;40;20035;-81
2021/08/02 00:13:14;;;;;;;4.00;1.77;;;;;;;17.23;68.26;99532.50;2191799;40;20043;-84
2021/08/02 00:14:47;;;;;;;3.13;1.45;;;;;;;17.21;68.17;99534.56;2192279;40;20036;-82
2021/08/02 00:16:19;;;;;;;4.00;1.90;;;;;;;17.20;68.18;99533.72;2191804;40;20047;-81
2021/08/02 00:17:52;;;;;;;3.80;1.48;;;;;;;17.12;68.34;99533.88;2192560;40;20047;-81
2021/08/02 00:19:25;;;;;;;3.40;1.50;;;;;;;17.08;68.25;99527.22;2191662;40;20047;-81
2021/08/02 00:20:58;;;;;;;5.20;1.98;;;;;;;17.05;68.03;99525.72;2191735;40;20035;-82
2021/08/02 00:22:30;;;;;;;3.70;1.60;;;;;;;17.04;68.55;99542.16;2192946;40;20035;-83
2021/08/02 00:24:01;;;;;;;3.45;1.65;;;;;;;17.03;68.44;99535.06;2193524;40;20050;-82
2021/08/02 00:25:33;;;;;;;4.72;1.88;;;;;;;17.06;68.14;99532.81;2191902;40;20036;-81
2021/08/02 00:27:07;;;;;;;3.60;1.27;;;;;;;17.12;67.94;99533.88;2192244;40;20400;-83
2021/08/02 00:28:40;;;;;;;4.32;1.50;;;;;;;17.10;68.02;99531.38;2191789;40;20038;-81
2021/08/02 00:30:12;;;;;;;3.47;1.35;;;;;;;17.08;68.25;99527.22;2192160;40;20399;-81
2021/08/02 00:31:44;;;;;;;3.85;1.58;;;;;;;17.08;68.06;99532.63;2190393;40;20028;-82
2021/08/02 00:33:15;;;;;;;3.67;1.50;;;;;;;17.05;68.09;99543.81;2190663;40;20046;-83
2021/08/02 00:34:47;;;;;;;6.65;1.75;;;;;;;17.04;68.19;99539.44;2190215;40;20055;-80
2021/08/02 00:36:24;;;;;;;3.80;1.65;;;;;;;16.95;68.29;99539.63;2190250;40;20392;-80
2021/08/02 00:38:02;;;;;;;4.63;1.50;;;;;;;16.92;68.61;99539.97;2191377;40;20236;-80
2021/08/02 00:39:43;;;;;;;5.95;2.08;;;;;;;16.89;68.58;99540.38;2190532;40;20043;-81
2021/08/02 00:41:53;;;;;;;3.80;1.55;;;;;;;16.88;68.65;99543.25;2190823;40;20407;-80
2021/08/02 00:43:52;;;;;;;4.82;1.45;;;;;;;16.92;68.67;99548.06;2190559;40;20028;-80
2021/08/02 00:45:29;;;;;;;4.93;1.60;;;;;;;16.96;68.53;99545.84;2190206;40;20613;-80
2021/08/02 00:47:05;;;;;;;3.33;1.25;;;;;;;17.00;68.21;99550.63;2190490;40;20044;-81
2021/08/02 00:48:44;;;;;;;3.88;1.20;;;;;;;17.08;68.29;99546.13;2190304;40;20040;-82
2021/08/02 00:50:19;;;;;;;3.50;1.70;;;;;;;17.10;68.41;99553.00;2190407;40;20291;-80
2021/08/02 00:51:54;;;;;;;4.45;1.60;;;;;;;17.10;68.22;99552.13;2190587;40;20403;-81
2021/08/02 00:53:27;;;;;;;3.45;1.45;;;;;;;17.07;68.41;99553.38;2190327;40;20396;-81
2021/08/02 00:54:59;;;;;;;4.45;1.67;;;;;;;17.02;68.51;99549.59;2190099;40;20047;-81
2021/08/02 00:56:34;;;;;;;3.97;2.03;;;;;;;16.95;68.59;99546.88;2190390;40;20047;-80
2021/08/02 00:58:10;;;;;;;4.63;1.50;;;;;;;16.91;69.14;99538.28;2190760;40;20043;-80
2021/08/02 00:59:44;;;;;;;3.85;1.50;;;;;;;16.92;69.04;99544.53;2190367;40;20031;-80
2021/08/02 01:01:17;;;;;;;4.38;1.60;;;;;;;16.94;68.72;99543.34;2190876;40;20400;-80
2021/08/02 01:02:51;;;;;;;3.30;1.40;;;;;;;16.96;68.55;99540.44;2190722;40;20043;-80
2021/08/02 01:04:24;;;;;;;3.80;1.77;;;;;;;16.99;68.40;99545.44;2190730;40;20046;-81
2021/08/02 01:05:56;;;;;;;3.80;1.70;;;;;;;16.96;68.53;99545.84;2191079;40;20213;-80
2021/08/02 01:07:29;;;;;;;4.82;1.45;;;;;;;16.95;68.46;99545.00;2195939;40;20040;-83
2021/08/02 01:09:03;;;;;;;4.45;1.60;;;;;;;16.96;68.84;99543.97;2194553;40;20036;-80
2021/08/02 01:10:36;;;;;;;4.07;1.67;;;;;;;17.02;68.68;99538.81;2194717;40;20023;-82
2021/08/02 01:12:10;;;;;;;3.22;1.55;;;;;;;17.07;68.59;99536.34;2191902;40;20043;-80
2021/08/02 01:13:43;;;;;;;3.67;1.75;;;;;;;17.11;68.29;99535.75;2191189;40;20038;-82
2021/08/02 01:15:19;;;;;;;5.88;1.80;;;;;;;17.15;68.13;99537.00;2190879;40;20411;-80
2021/08/02 01:16:54;;;;;;;5.50;1.40;;;;;;;17.20;68.15;99533.72;2190858;40;20038;-80
2021/08/02 01:18:26;;;;;;;5.38;1.50;;;;;;;17.26;67.94;99535.63;2188814;40;20326;-80
2021/08/02 01:19:58;;;;;;;3.78;1.52;;;;;;;17.28;67.85;99530.00;2190751;40;20050;-80
2021/08/02 01:21:33;;;;;;;3.80;1.33;;;;;;;17.27;67.89;99531.03;2190640;40;20127;-82
2021/08/02 01:23:10;;;;;;;3.58;1.45;;;;;;;17.19;68.13;99528.50;2190288;40;20035;-81
2021/08/02 01:24:43;;;;;;;5.18;1.73;;;;;;;17.17;68.29;99535.97;2190544;40;20323;-80
2021/08/02 01:27:09;;;;;;;5.63;1.48;;;;;;;17.20;68.28;99532.88;2189889;40;20038;-80
2021/08/02 01:29:28;;;;;;;4.32;1.60;;;;;;;17.17;68.45;99528.72;2165204;41;20033;-80
2021/08/02 01:31:02;;;;;;;5.22;1.70;;;;;;;17.15;68.50;99536.19;2143278;41;20043;-80
2021/08/02 01:32:34;;;;;;;3.78;1.40;;;;;;;17.12;68.60;99533.88;2159767;41;20041;-81
2021/08/02 01:34:05;;;;;;;3.40;1.60;;;;;;;17.08;68.56;99533.44;2180545;40;20031;-80
2021/08/02 01:35:39;;;;;;;3.42;1.50;;;;;;;17.05;68.95;99546.50;2190090;40;20055;-80
2021/08/02 01:37:11;;;;;;;4.10;1.63;;;;;;;16.99;69.11;99546.28;2190221;40;20042;-80
2021/08/02 01:38:44;;;;;;;8.10;1.30;;;;;;;16.97;69.31;99544.81;2190605;40;20038;-81
2021/08/02 01:40:15;;;;;;;6.05;1.60;;;;;;;16.98;69.13;99550.03;2191274;40;20180;-80
2021/08/02 01:42:05;;;;;;;3.75;1.63;;;;;;;17.03;68.81;99540.47;2191578;40;20052;-79
2021/08/02 01:43:36;;;;;;;3.65;1.60;;;;;;;17.00;69.31;99545.22;2191829;40;20035;-80
2021/08/02 01:45:20;;;;;;;3.90;1.70;;;;;;;17.05;69.11;99543.81;2191727;40;20035;-81
2021/08/02 01:47:00;;;;;;;4.65;1.60;;;;;;;17.03;69.36;99552.13;2191715;40;20496;-81
2021/08/02 01:48:46;;;;;;;3.95;1.45;;;;;;;17.04;69.40;99552.94;2191847;40;20566;-80
2021/08/02 01:50:26;;;;;;;3.83;1.30;;;;;;;17.03;69.32;99551.28;2196056;40;20039;-81
2021/08/02 01:51:58;;;;;;;5.57;1.60;;;;;;;17.00;69.35;99556.03;2195278;40;20046;-79
2021/08/02 01:53:33;;;;;;;4.00;1.63;;;;;;;16.99;69.65;99553.53;2198064;40;20051;-81
2021/08/02 01:55:10;;;;;;;3.20;1.60;;;;;;;16.95;69.76;99557.69;2198417;40;20050;-81
2021/08/02 01:56:49;;;;;;;4.35;1.67;;;;;;;16.95;69.53;99555.00;2198338;40;20038;-81
2021/08/02 01:58:21;;;;;;;3.40;1.75;;;;;;;16.95;69.73;99561.22;2196085;40;20938;-81
2021/08/02 01:59:58;;;;;;;3.53;1.70;;;;;;;16.95;69.54;99565.78;2194146;40;20061;-80
2021/08/02 02:01:33;;;;;;;3.50;1.33;;;;;;;16.92;69.61;99564.25;2195851;40;20034;-79
2021/08/02 02:03:11;;;;;;;5.03;1.48;;;;;;;16.98;69.80;99563.53;2199892;40;20035;-78
2021/08/02 02:04:49;;;;;;;4.43;1.77;;;;;;;17.00;69.64;99558.72;2197648;40;20038;-80
2021/08/02 02:06:25;;;;;;;4.00;1.50;;;;;;;16.98;69.73;99563.53;2196174;40;20050;-79
2021/08/02 02:08:01;;;;;;;4.20;1.73;;;;;;;16.96;69.88;99562.88;2194652;40;20066;-80
2021/08/02 02:09:37;;;;;;;3.92;1.52;;;;;;;16.96;69.55;99562.03;2194405;40;20051;-80
2021/08/02 02:11:09;;;;;;;4.97;1.50;;;;;;;16.97;69.46;99561.84;2197167;40;20039;-80
2021/08/02 02:12:43;;;;;;;3.78;1.48;;;;;;;16.97;69.54;99564.56;2194189;40;20039;-81
2021/08/02 02:14:17;;;;;;;3.28;1.52;;;;;;;16.97;69.33;99566.41;2195533;40;20439;-79
2021/08/02 02:15:52;;;;;;;3.30;1.42;;;;;;;16.95;69.67;99560.38;2195187;40;20098;-81
2021/08/02 02:17:26;;;;;;;4.55;1.58;;;;;;;16.90;69.72;99562.81;2197759;40;20462;-80
2021/08/02 02:19:03;;;;;;;3.75;1.50;;;;;;;16.86;69.65;99565.06;2199210;40;20047;-80
2021/08/02 02:20:35;;;;;;;3.42;1.42;;;;;;;16.87;69.70;99564.03;2197284;40;20035;-79
2021/08/02 02:22:09;;;;;;;3.20;1.52;;;;;;;16.93;69.44;99567.81;2198718;40;20482;-81
2021/08/02 02:23:40;;;;;;;4.13;1.60;;;;;;;16.94;69.61;99558.72;2195784;40;20045;-81
2021/08/02 02:25:13;;;;;;;3.83;1.70;;;;;;;16.99;69.04;99558.94;2197526;40;20074;-79
2021/08/02 02:26:47;;;;;;;3.83;1.70;;;;;;;17.02;69.12;99563.09;2194271;40;20055;-81
2021/08/02 02:28:20;;;;;;;2.90;1.40;;;;;;;17.06;68.93;99567.91;2194511;40;20039;-80
2021/08/02 02:29:53;;;;;;;5.25;1.70;;;;;;;17.08;68.79;99570.44;2198414;40;20034;-81
2021/08/02 02:31:26;;;;;;;3.38;1.35;;;;;;;17.07;68.55;99568.75;2197212;40;20137;-81
2021/08/02 02:32:58;;;;;;;3.72;1.40;;;;;;;17.02;68.54;99560.41;2197910;40;20054;-81
2021/08/02 02:34:29;;;;;;;4.68;1.42;;;;;;;17.05;68.47;99565.41;2196818;40;20699;-81
2021/08/02 02:36:03;;;;;;;3.70;1.60;;;;;;;17.02;68.44;99563.09;2199512;40;20039;-81
2021/08/02 02:37:35;;;;;;;4.07;1.48;;;;;;;16.98;68.44;99571.63;2196587;40;20057;-81
2021/08/02 02:39:08;;;;;;;4.43;1.42;;;;;;;17.03;68.38;99567.47;2197136;40;20327;-80
2021/08/02 02:40:40;;;;;;;3.15;1.52;;;;;;;17.07;68.50;99568.75;2197882;40;20049;-80
2021/08/02 02:42:14;;;;;;;3.47;1.73;;;;;;;17.10;68.36;99566.50;2199542;40;20043;-81
2021/08/02 02:43:46;;;;;;;3.65;1.23;;;;;;;17.04;68.21;99564.59;2197251;40;20074;-80
2021/08/02 02:45:18;;;;;;;7.95;1.80;;;;;;;17.05;68.41;99570.81;2195757;40;20047;-80
2021/08/02 02:46:51;;;;;;;3.53;1.40;;;;;;;17.02;68.30;99574.75;2195014;40;20465;-80
2021/08/02 02:48:24;;;;;;;5.20;1.60;;;;;;;17.02;68.03;99569.34;2193882;40;20039;-81
2021/08/02 02:49:57;;;;;;;5.65;1.50;;;;;;;16.97;68.21;99575.34;2194808;40;20059;-80
2021/08/02 02:51:30;;;;;;;4.70;1.67;;;;;;;16.94;68.30;99575.75;2191048;40;20043;-80
2021/08/02 02:53:04;;;;;;;3.53;1.52;;;;;;;16.89;68.61;99575.47;2191377;40;20034;-78
2021/08/02 02:54:38;;;;;;;3.60;1.45;;;;;;;16.85;68.65;99579.59;2198641;40;20330;-81
2021/08/02 02:56:12;;;;;;;3.97;1.70;;;;;;;16.86;68.63;99577.75;2196708;40;20066;-82
2021/08/02 02:57:46;;;;;;;5.50;1.42;;;;;;;16.84;68.54;99576.06;2198136;40;20035;-81
2021/08/02 02:59:19;;;;;;;3.45;1.50;;;;;;;16.88;68.49;99584.59;2198611;40;20031;-79
2021/08/02 03:00:52;;;;;;;4.55;1.50;;;;;;;16.89;68.63;99578.19;2197634;40;20038;-81
2021/08/02 03:02:25;;;;;;;3.95;1.20;;;;;;;16.91;68.42;99586.88;2195042;40;20038;-80
2021/08/02 03:05:54;;;;;;;2.50;1.10;;;;;;;16.84;68.65;99597.66;2195260;40;20510;-81
2021/08/02 03:07:29;;;;;;;3.42;1.13;;;;;;;16.88;68.44;99586.44;2198376;40;20042;-80
2021/08/02 03:09:01;;;;;;;4.13;1.75;;;;;;;16.87;68.39;99593.72;2193613;40;20477;-78
2021/08/02 03:10:34;;;;;;;4.60;1.88;;;;;;;16.82;68.46;99590.78;2196601;40;20050;-79
2021/08/02 03:12:07;;;;;;;4.13;1.80;;;;;;;16.80;68.71;99603.66;2196224;40;20069;-80
2021/08/02 03:13:40;;;;;;;6.18;2.42;;;;;;;16.86;68.50;99599.34;2197832;40;20042;-80
2021/08/02 03:15:13;;;;;;;3.40;1.60;;;;;;;16.84;68.44;99604.91;2195204;40;20047;-79
2021/08/02 03:16:44;;;;;;;4.55;1.70;;;;;;;16.84;68.45;99608.47;2190596;40;20050;-79
2021/08/02 03:18:15;;;;;;;5.80;1.67;;;;;;;16.78;68.43;99605.72;2190640;40;20054;-78
2021/08/02 03:19:47;;;;;;;3.90;1.42;;;;;;;16.73;68.84;99610.84;2190894;40;20035;-80
2021/08/02 03:21:20;;;;;;;4.28;1.42;;;;;;;16.72;68.75;99611.91;2190393;40;20439;-79
2021/08/02 03:22:53;;;;;;;4.45;1.65;;;;;;;16.73;68.90;99614.41;2190719;40;20059;-80
2021/08/02 03:24:31;;;;;;;4.50;1.50;;;;;;;16.74;68.82;99610.66;2192861;40;20115;-78
2021/08/02 03:26:09;;;;;;;3.60;1.50;;;;;;;16.75;68.87;99611.50;2195786;40;20046;-78
2021/08/02 03:27:47;;;;;;;5.68;1.50;;;;;;;16.75;68.69;99614.19;2196839;40;20154;-80
2021/08/02 03:29:25;;;;;;;3.33;1.60;;;;;;;16.70;69.10;99612.06;2196993;40;20059;-79
2021/08/02 03:31:00;;;;;;;4.55;1.65;;;;;;;16.60;69.30;99611.56;2199149;40;20058;-81
2021/08/02 03:32:34;;;;;;;4.65;1.70;;;;;;;16.62;69.38;99614.91;2197528;40;20027;-79
2021/08/02 03:34:11;;;;;;;3.80;1.90;;;;;;;16.60;69.51;99622.38;2197133;40;20031;-81
2021/08/02 03:35:44;;;;;;;3.78;1.70;;;;;;;16.53;69.50;99620.47;2197591;40;20039;-79
2021/08/02 03:37:18;;;;;;;4.47;1.65;;;;;;;16.46;69.79;99626.81;2198003;40;20049;-79
2021/08/02 03:38:52;;;;;;;4.55;1.65;;;;;;;16.42;70.29;99625.53;2197064;40;20046;-79
2021/08/02 03:40:23;;;;;;;5.03;2.35;;;;;;;16.37;70.24;99618.84;2197016;40;20035;-81
2021/08/02 03:41:57;;;;;;;3.47;1.70;;;;;;;16.40;70.22;99624.91;2197405;40;20410;-80
2021/08/02 03:43:29;;;;;;;4.47;2.22;;;;;;;16.40;70.34;99639.22;2197003;40;20039;-79
2021/08/02 03:45:04;;;;;;;3.28;1.73;;;;;;;16.41;70.52;99635.47;2192580;40;20039;-81
2021/08/02 03:46:36;;;;;;;5.00;1.85;;;;;;;16.42;70.17;99628.25;2192630;40;20034;-80
2021/08/02 03:48:10;;;;;;;4.57;1.40;;;;;;;16.41;70.21;99630.09;2192918;40;20032;-81
2021/08/02 03:49:41;;;;;;;4.82;1.60;;;;;;;16.44;70.37;99634.25;2192628;40;20035;-82
2021/08/02 03:51:13;;;;;;;7.82;1.83;;;;;;;16.45;70.40;99630.53;2198757;40;20031;-80
2021/08/02 03:52:47;;;;;;;3.70;1.50;;;;;;;16.47;70.40;99636.56;2198732;40;20027;-80
2021/08/02 03:54:17;;;;;;;5.25;1.40;;;;;;;16.51;69.98;99635.19;2203109;40;20042;-79
2021/08/02 03:55:51;;;;;;;4.15;1.50;;;;;;;16.50;70.14;99633.50;2195173;40;20039;-79
2021/08/02 03:57:22;;;;;;;3.30;1.70;;;;;;;16.41;70.57;99637.38;2193367;40;20467;-79
2021/08/02 03:58:54;;;;;;;3.92;1.52;;;;;;;16.36;70.61;99643.34;2196468;40;20415;-78
2021/08/02 04:00:27;;;;;;;3.95;1.67;;;;;;;16.33;70.78;99632.91;2198094;40;20046;-79
2021/08/02 04:01:58;;;;;;;3.47;1.52;;;;;;;16.32;70.75;99645.59;2195029;40;20461;-80
2021/08/02 04:03:30;;;;;;;4.20;1.70;;;;;;;16.30;70.75;99642.25;2194881;40;20038;-79
2021/08/02 04:05:02;;;;;;;4.70;1.92;;;;;;;16.30;70.75;99636.84;2196260;40;20054;-78
2021/08/02 04:06:34;;;;;;;4.35;2.08;;;;;;;16.35;70.80;99644.34;2193868;40;20051;-77
2021/08/02 04:08:05;;;;;;;4.47;1.83;;;;;;;16.30;70.80;99646.78;2196859;40;20047;-80
2021/08/02 04:09:37;;;;;;;4.80;1.58;;;;;;;16.24;71.03;99642.16;2199049;40;20030;-79
2021/08/02 04:11:09;;;;;;;4.50;1.75;;;;;;;16.23;71.14;99638.66;2195852;40;20047;-78
2021/08/02 04:12:41;;;;;;;3.45;1.40;;;;;;;16.28;70.88;99648.84;2199288;40;20031;-79
2021/08/02 04:14:14;;;;;;;4.25;1.75;;;;;;;16.35;70.79;99642.47;2197092;40;20031;-78
2021/08/02 04:15:47;;;;;;;3.88;2.00;;;;;;;16.41;70.38;99645.47;2193423;40;20023;-79
2021/08/02 04:17:19;;;;;;;3.83;1.80;;;;;;;16.48;70.59;99644.47;2194908;40;20042;-79
2021/08/02 04:18:50;;;;;;;5.35;2.10;;;;;;;16.50;70.21;99642.41;2197122;40;20278;-78
2021/08/02 04:20:22;;;;;;;3.80;1.70;;;;;;;16.49;70.14;99651.53;2195784;40;20050;-79
2021/08/02 04:21:52;;;;;;;4.20;1.73;;;;;;;16.48;69.94;99652.56;2197179;40;20034;-79
2021/08/02 04:23:24;;;;;;;6.40;1.90;;;;;;;16.48;70.07;99647.16;2196885;40;20287;-79
2021/08/02 04:24:55;;;;;;;5.00;2.00;;;;;;;16.54;69.73;99648.25;2196891;40;20470;-79
2021/08/02 04:26:27;;;;;;;3.95;1.80;;;;;;;16.57;69.89;99650.59;2197064;40;20034;-80
2021/08/02 04:27:58;;;;;;;4.00;1.80;;;;;;;16.60;69.59;99650.19;2197389;40;20051;-79
2021/08/02 04:29:29;;;;;;;4.72;1.77;;;;;;;16.62;69.73;99652.69;2198962;40;20316;-79
2021/08/02 04:31:03;;;;;;;5.00;1.73;;;;;;;16.57;69.78;99652.47;2196251;40;20307;-78
2021/08/02 04:32:34;;;;;;;5.63;1.98;;;;;;;16.51;69.79;99651.38;2194670;40;20050;-80
2021/08/02 04:34:06;;;;;;;4.97;1.60;;;;;;;16.49;69.76;99656.13;2197234;40;20061;-80
2021/08/02 04:35:40;;;;;;;4.90;1.95;;;;;;;16.41;70.10;99659.75;2197811;40;20053;-79
2021/08/02 04:37:11;;;;;;;5.07;1.75;;;;;;;16.34;70.28;99651.59;2196118;40;20034;-78
2021/08/02 04:38:43;;;;;;;3.30;1.50;;;;;;;16.31;70.45;99657.41;2195737;40;20071;-78
2021/08/02 04:40:14;;;;;;;4.50;1.70;;;;;;;16.33;70.11;99660.75;2196734;40;20035;-78
2021/08/02 04:41:46;;;;;;;3.88;1.80;;;;;;;16.34;70.18;99658.88;2174222;41;20056;-80
2021/08/02 04:43:17;;;;;;;5.57;1.52;;;;;;;16.34;70.42;99661.56;2195460;40;20043;-79
2021/08/02 04:44:48;;;;;;;4.82;2.03;;;;;;;16.35;70.15;99661.38;2194764;40;20062;-79
2021/08/02 04:46:22;;;;;;;5.10;1.77;;;;;;;16.38;70.26;99657.47;2196525;40;20047;-79
2021/08/02 04:47:54;;;;;;;5.10;1.80;;;;;;;16.38;70.20;99665.56;2198267;40;20043;-79
2021/08/02 04:49:26;;;;;;;6.07;2.20;;;;;;;16.38;70.21;99658.28;2197378;40;20034;-78
2021/08/02 04:50:56;;;;;;;4.15;2.35;;;;;;;16.40;70.39;99657.28;2196549;40;20069;-78
2021/08/02 04:52:29;;;;;;;5.03;2.03;;;;;;;16.44;70.08;99661.22;2195016;40;20133;-79
2021/08/02 04:54:01;;;;;;;3.38;1.70;;;;;;;16.42;70.27;99664.13;2193839;40;20359;-79
2021/08/02 04:55:33;;;;;;;4.85;1.80;;;;;;;16.42;70.27;99655.22;2194711;40;20039;-80
2021/08/02 04:57:05;;;;;;;3.20;1.48;;;;;;;16.38;70.18;99658.28;2197290;40;20043;-80
2021/08/02 04:58:37;;;;;;;3.83;1.50;;;;;;;16.40;70.25;99655.41;2193076;40;20406;-79
2021/08/02 05:00:09;;;;;;;5.15;1.45;;;;;;;16.41;70.10;99658.94;2197075;40;20403;-79
2021/08/02 05:01:42;;;;;;;4.80;1.55;;;;;;;16.43;70.35;99665.00;2198084;40;20058;-79
2021/08/02 05:03:14;;;;;;;3.75;1.75;;;;;;;16.41;70.37;99662.47;2196394;40;20042;-78
2021/08/02 05:04:46;;;;;;;5.30;1.83;;;;;;;16.43;70.26;99660.41;2193053;40;20059;-79
2021/08/02 05:06:18;;;;;;;4.18;1.70;;;;;;;16.44;70.37;99661.22;2196443;40;20027;-79
2021/08/02 05:07:50;;;;;;;4.50;1.80;;;;;;;16.46;70.37;99669.97;2197475;40;20098;-80
2021/08/02 05:09:21;;;;;;;3.20;1.50;;;;;;;16.47;70.20;99671.66;2196278;40;20320;-79
2021/08/02 05:10:52;;;;;;;4.30;1.45;;;;;;;16.47;70.36;99666.25;2195737;40;20398;-80
2021/08/02 05:12:24;;;;;;;3.45;1.40;;;;;;;16.48;70.43;99662.53;2195622;40;20195;-78
2021/08/02 05:13:56;;;;;;;6.50;1.95;;;;;;;16.52;70.03;99669.22;2194523;40;20055;-79
2021/08/02 05:15:26;;;;;;;5.88;1.75;;;;;;;16.56;69.97;99667.78;2196952;40;20039;-79
2021/08/02 05:17:00;;;;;;;3.40;1.67;;;;;;;16.51;70.02;99665.69;2195303;40;20042;-78
2021/08/02 05:18:30;;;;;;;3.10;1.42;;;;;;;16.54;69.95;99672.53;2198291;40;20035;-79
2021/08/02 05:20:03;;;;;;;5.95;1.55;;;;;;;16.53;69.85;99666.31;2193566;40;20059;-78
2021/08/02 05:21:35;;;;;;;3.92;1.50;;;;;;;16.49;69.96;99670.41;2196151;40;20054;-79
2021/08/02 05:23:06;;;;;;;5.28;2.35;;;;;;;16.49;70.04;99677.69;2196133;40;20039;-78
2021/08/02 05:24:39;;;;;;;4.43;1.80;;;;;;;16.48;69.96;99673.31;2194802;40;20379;-79
2021/08/02 05:26:11;;;;;;;4.72;2.00;;;;;;;16.51;69.94;99673.78;2194256;40;20054;-79
2021/08/02 05:27:47;;;;;;;4.57;2.10;;;;;;;16.50;70.08;99676.66;2195487;40;20118;-78
2021/08/02 05:29:19;;;;;;;4.03;1.55;;;;;;;16.48;70.04;99678.72;2196632;40;20047;-80
2021/08/02 05:30:51;;;;;;;3.58;1.52;;;;;;;16.46;70.15;99683.47;2198182;40;20064;-79
2021/08/02 05:32:24;;;;;;;4.55;1.67;;;;;;;16.48;70.18;99678.72;2197894;40;20304;-79
2021/08/02 05:33:56;;;;;;;3.75;1.73;;;;;;;16.49;70.25;99680.41;2194382;40;20031;-79
2021/08/02 05:35:28;;;;;;;5.35;1.58;;;;;;;16.52;70.04;99680.03;2195860;40;20042;-79
2021/08/02 05:36:59;;;;;;;4.72;1.70;;;;;;;16.54;70.06;99677.94;2198163;40;20039;-79
2021/08/02 05:38:30;;;;;;;4.50;2.10;;;;;;;16.57;70.12;99682.97;2194407;40;20042;-79
2021/08/02 05:40:02;;;;;;;4.70;2.08;;;;;;;16.63;69.93;99674.09;2194824;40;20312;-79
2021/08/02 05:41:34;;;;;;;5.63;1.77;;;;;;;16.63;69.46;99676.78;2196898;40;20400;-79
2021/08/02 05:43:06;;;;;;;3.85;1.73;;;;;;;16.65;69.46;99672.03;2197200;40;20027;-79
2021/08/02 05:44:38;;;;;;;5.70;1.85;;;;;;;16.66;69.57;99676.41;2196197;40;20668;-79
2021/08/02 05:46:08;;;;;;;4.85;1.42;;;;;;;16.69;69.12;99675.16;2199010;40;20059;-79
2021/08/02 05:47:42;;;;;;;4.10;1.63;;;;;;;16.69;69.22;99675.16;2196361;40;20032;-80
2021/08/02 05:49:12;;;;;;;6.70;1.85;;;;;;;16.69;69.27;99681.41;2198328;40;20042;-79
2021/08/02 05:50:44;;;;;;;4.30;1.55;;;;;;;16.69;69.00;99689.50;2197033;40;20047;-79
2021/08/02 05:52:15;;;;;;;3.42;1.60;;;;;;;16.72;69.04;99679.38;2195273;40;20038;-79
2021/08/02 05:53:47;;;;;;;4.93;1.60;;;;;;;16.74;68.84;99680.00;2198095;40;20035;-79
2021/08/02 05:55:18;;;;;;;3.33;1.48;;;;;;;16.75;68.54;99695.16;2197378;40;20039;-80
2021/08/02 05:56:49;;;;;;;4.70;2.00;;;;;;;16.72;68.39;99695.56;2198815;40;20057;-79
2021/08/02 05:58:21;;;;;;;5.63;1.80;;;;;;;16.69;68.70;99692.22;2179122;41;20043;-79
2021/08/02 05:59:53;;;;;;;3.97;1.40;;;;;;;16.71;68.25;99692.00;2197583;40;20039;-79
2021/08/02 06:01:25;;;;;;;3.28;1.80;;;;;;;16.73;68.39;99691.81;2194868;40;20038;-79
2021/08/02 06:02:57;;;;;;;4.80;1.70;;;;;;;16.81;68.18;99695.22;2194705;40;20044;-79
2021/08/02 06:04:29;;;;;;;3.92;1.60;;;;;;;16.93;68.12;99694.69;2177964;41;20369;-79
2021/08/02 06:06:02;;;;;;;3.15;1.45;;;;;;;16.97;67.74;99702.25;2188841;40;20024;-80
2021/08/02 06:07:35;;;;;;;4.72;1.70;;;;;;;16.94;67.83;99697.22;2191772;40;20051;-79
2021/08/02 06:09:10;;;;;;;6.07;1.63;;;;;;;16.94;68.07;99694.53;2192661;40;20271;-80
2021/08/02 06:10:42;;;;;;;4.97;1.75;;;;;;;16.96;67.67;99697.88;2197412;40;20054;-78
2021/08/02 06:12:13;;;;;;;6.60;1.88;;;;;;;17.02;67.70;99698.97;2196103;40;20031;-79
2021/08/02 06:13:48;;;;;;;7.95;1.60;;;;;;;17.05;67.87;99695.03;2197545;40;20038;-77
2021/08/02 06:15:18;;;;;;;3.63;1.70;;;;;;;17.06;67.68;99702.09;2195312;40;20028;-79
2021/08/02 06:16:50;;;;;;;6.00;1.88;;;;;;;17.00;67.83;99699.13;2194269;40;20058;-79
2021/08/02 06:18:23;;;;;;;4.78;1.77;;;;;;;16.98;67.66;99698.53;2198610;40;20054;-77
2021/08/02 06:19:55;;;;;;;5.70;1.70;;;;;;;16.95;67.79;99707.00;2196848;40;20071;-79
2021/08/02 06:21:27;;;;;;;5.68;1.50;;;;;;;16.97;67.85;99702.25;2196520;40;20466;-79
2021/08/02 06:22:58;;;;;;;4.57;1.85;;;;;;;17.04;67.65;99706.84;2194740;40;20054;-79
2021/08/02 06:24:29;;;;;;;8.85;1.92;;;;;;;16.99;67.88;99702.03;2197797;40;20039;-79
2021/08/02 06:26:01;;;;;;;6.32;1.77;;;;;;;17.03;67.75;99707.88;2196335;40;20015;-79
2021/08/02 06:27:33;;;;;;;6.97;1.98;;;;;;;17.05;67.76;99711.22;2196846;40;20043;-79
2021/08/02 06:29:05;;;;;;;5.43;1.88;;;;;;;17.05;67.99;99703.13;2195915;40;20042;-77
2021/08/02 06:30:36;;;;;;;5.45;2.03;;;;;;;17.10;67.71;99698.81;2200250;40;20031;-78
2021/08/02 06:32:08;;;;;;;5.35;2.13;;;;;;;17.20;67.47;99693.06;2200344;40;20038;-80
2021/08/02 06:33:41;;;;;;;7.65;2.45;;;;;;;17.21;67.48;99705.53;2199103;40;20023;-80
2021/08/02 06:35:13;;;;;;;5.03;1.55;;;;;;;17.22;67.35;99699.09;2200511;40;20459;-79
2021/08/02 06:36:45;;;;;;;6.82;2.00;;;;;;;17.26;67.60;99713.03;2198010;40;20057;-79
2021/08/02 06:38:16;;;;;;;5.45;1.75;;;;;;;17.29;67.37;99707.25;2201802;40;20541;-78
2021/08/02 06:39:47;;;;;;;5.80;1.88;;;;;;;17.27;67.30;99707.47;2198449;40;20031;-78
2021/08/02 06:41:19;;;;;;;5.28;1.90;;;;;;;17.27;67.42;99703.91;2197541;40;20039;-78
2021/08/02 06:42:51;;;;;;;3.85;1.65;;;;;;;17.33;67.21;99708.53;2199373;40;20038;-78
2021/08/02 06:44:21;;;;;;;5.18;1.85;;;;;;;17.41;66.92;99710.25;2198373;40;20030;-79
2021/08/02 06:45:54;;;;;;;6.57;2.08;;;;;;;17.43;66.93;99703.59;2201306;40;20052;-77
2021/08/02 06:47:25;;;;;;;5.40;1.90;;;;;;;17.52;66.65;99708.88;2200070;40;20042;-80
2021/08/02 06:48:59;;;;;;;8.20;2.25;;;;;;;17.56;66.18;99702.88;2200400;40;20054;-80
2021/08/02 06:50:31;;;;;;;6.68;1.52;;;;;;;17.62;65.82;99712.88;2196854;40;20039;-79
2021/08/02 06:52:03;;;;;;;4.75;1.73;;;;;;;17.70;65.82;99706.47;2201138;40;20053;-79
2021/08/02 06:53:34;;;;;;;5.30;1.90;;;;;;;17.76;65.37;99708.38;2200905;40;20087;-78
2021/08/02 06:55:06;;;;;;;6.22;2.33;;;;;;;17.74;65.40;99710.44;2199294;40;20098;-79
2021/08/02 06:56:38;;;;;;;12.88;2.38;;;;;;;17.70;65.05;99705.63;2199650;40;20039;-79
2021/08/02 06:58:10;;;;;;;6.75;1.90;;;;;;;17.72;65.36;99706.28;2200199;40;20026;-78
2021/08/02 06:59:40;;;;;;;7.78;2.10;;;;;;;17.73;65.44;99713.34;2199970;40;20121;-78
2021/08/02 07:01:12;;;;;;;4.47;1.80;;;;;;;17.77;65.16;99707.34;2200620;40;20042;-79
2021/08/02 07:02:43;;;;;;;4.78;1.90;;;;;;;17.84;64.83;99710.09;2197709;40;20039;-78
2021/08/02 07:04:17;;;;;;;4.72;1.52;;;;;;;17.91;64.85;99715.50;2201125;40;20141;-78
2021/08/02 07:05:48;;;;;;;3.78;1.60;;;;;;;17.88;64.85;99710.50;2200627;40;20042;-78
2021/08/02 07:07:20;;;;;;;5.05;1.50;;;;;;;17.89;64.40;99715.72;2196369;40;20031;-79
2021/08/02 07:08:52;;;;;;;4.13;1.38;;;;;;;17.84;64.72;99718.19;2198738;40;20036;-77
2021/08/02 07:10:23;;;;;;;6.25;1.60;;;;;;;17.78;65.00;99717.13;2199968;40;20394;-80
2021/08/02 07:11:54;;;;;;;4.00;1.60;;;;;;;17.73;64.73;99718.75;2183979;40;20088;-80
2021/08/02 07:13:25;;;;;;;5.47;2.05;;;;;;;17.72;65.20;99717.09;2193606;40;20470;-80
2021/08/02 07:14:57;;;;;;;5.35;1.58;;;;;;;17.73;65.06;99714.16;2198240;40;20039;-79
2021/08/02 07:16:28;;;;;;;4.22;1.55;;;;;;;17.71;64.88;99715.41;2200627;40;20034;-79
2021/08/02 07:17:59;;;;;;;6.82;1.90;;;;;;;17.72;65.20;99722.50;2197835;40;20200;-79
2021/08/02 07:19:33;;;;;;;6.43;1.67;;;;;;;17.74;65.07;99725.84;2194697;40;20408;-79
2021/08/02 07:21:04;;;;;;;7.75;1.48;;;;;;;17.75;64.89;99716.69;2200021;40;20041;-78
2021/08/02 07:22:35;;;;;;;4.68;1.75;;;;;;;17.72;64.87;99717.09;2198210;40;20039;-79